Time;durP1;ratioP1;P1;durP2;ratioP2;P2;SDS_P1;SDS_P2;PMS_P1;PMS_P2;Temp;Humidity;BMP_temperature;BMP_pressure;BME280_temperature;BME280_humidity;BME280_pressure;Samples;Min_cycle;Max_cycle;Signal;HPM_P1;HPM_P2
2022/01/10 00:02:02;;;;;;;11.60;6.27;;;4.40;99.90;;;;;;5037421;28;20203;-60
2022/01/10 00:04:28;;;;;;;7.15;6.30;;;4.40;99.90;;;;;;5028363;28;20187;-60
2022/01/10 00:06:54;;;;;;;11.93;6.73;;;4.40;99.90;;;;;;5026949;28;20217;-59
2022/01/10 00:09:19;;;;;;;8.10;6.30;;;4.40;99.90;;;;;;5027015;28;20206;-59
2022/01/10 00:11:45;;;;;;;8.70;6.07;;;4.40;99.90;;;;;;5028227;28;20187;-59
2022/01/10 00:14:10;;;;;;;6.60;5.90;;;4.40;99.90;;;;;;5027210;28;20195;-59
2022/01/10 00:16:36;;;;;;;9.30;5.87;;;4.40;99.90;;;;;;5028689;28;20531;-59
2022/01/10 00:19:01;;;;;;;10.90;6.60;;;4.40;99.90;;;;;;5027818;28;20199;-58
2022/01/10 00:21:27;;;;;;;6.90;5.53;;;4.50;99.90;;;;;;5027165;28;20201;-59
2022/01/10 00:23:52;;;;;;;9.83;6.23;;;4.50;99.90;;;;;;5028867;28;20879;-59
2022/01/10 00:26:18;;;;;;;10.00;6.63;;;4.50;99.90;;;;;;5026118;28;20187;-60
2022/01/10 00:28:43;;;;;;;9.83;6.03;;;4.50;99.90;;;;;;5027708;28;20195;-60
2022/01/10 00:31:09;;;;;;;12.10;6.10;;;4.50;99.90;;;;;;5029408;28;20175;-60
2022/01/10 00:33:35;;;;;;;8.57;5.73;;;4.50;99.90;;;;;;5026841;28;20187;-59
2022/01/10 00:36:00;;;;;;;8.57;6.20;;;4.50;99.90;;;;;;5027455;28;20198;-59
2022/01/10 00:38:26;;;;;;;9.60;6.30;;;4.50;99.90;;;;;;5028612;28;20194;-59
2022/01/10 00:40:51;;;;;;;8.30;6.90;;;4.50;99.90;;;;;;5028212;28;20244;-59
2022/01/10 00:43:28;;;;;;;8.40;5.90;;;4.40;99.90;;;;;;5026732;28;20202;-60
2022/01/10 00:45:54;;;;;;;9.93;5.93;;;4.40;99.90;;;;;;5025689;28;20590;-59
2022/01/10 00:48:19;;;;;;;8.07;6.43;;;4.40;99.90;;;;;;5028886;28;20186;-59
2022/01/10 00:50:45;;;;;;;8.97;6.20;;;4.50;99.90;;;;;;5029799;28;20261;-59
2022/01/10 00:53:10;;;;;;;8.80;6.13;;;4.50;99.90;;;;;;5030925;28;20211;-59
2022/01/10 00:55:36;;;;;;;8.80;6.33;;;4.40;99.90;;;;;;5033914;28;20787;-59
2022/01/10 00:58:01;;;;;;;9.00;6.30;;;4.50;99.90;;;;;;5035049;28;20654;-59
2022/01/10 01:00:27;;;;;;;9.40;5.90;;;4.50;99.90;;;;;;5030454;28;20182;-60
2022/01/10 01:02:53;;;;;;;9.47;6.03;;;4.50;99.90;;;;;;5035051;28;20207;-59
2022/01/10 01:05:21;;;;;;;10.13;6.67;;;4.50;99.90;;;;;;5029817;28;20198;-59
2022/01/10 01:07:47;;;;;;;8.50;5.85;;;4.60;99.90;;;;;;5039257;28;20203;-59
2022/01/10 01:24:03;;;;;;;8.25;6.20;;;4.60;99.90;;;;;;5034257;28;20213;-59
2022/01/10 01:26:31;;;;;;;8.35;5.88;;;4.60;99.90;;;;;;5033559;28;20179;-59
2022/01/10 01:28:56;;;;;;;10.38;6.00;;;4.60;99.90;;;;;;5039768;28;20183;-60
2022/01/10 01:31:22;;;;;;;9.20;6.00;;;4.60;99.90;;;;;;5025969;28;20206;-59
2022/01/10 01:33:48;;;;;;;8.17;5.73;;;4.60;99.90;;;;;;5040930;28;20193;-59
2022/01/10 01:36:16;;;;;;;8.33;5.97;;;4.60;99.90;;;;;;5037132;28;20202;-58
2022/01/10 01:38:42;;;;;;;9.30;6.20;;;4.70;99.90;;;;;;5045112;28;20186;-59
2022/01/10 01:43:52;;;;;;;8.57;5.70;;;4.60;99.90;;;;;;5036128;28;20217;-59
2022/01/10 01:46:18;;;;;;;7.68;6.10;;;4.60;99.90;;;;;;5031046;28;20187;-59
2022/01/10 01:48:44;;;;;;;11.80;6.50;;;4.60;99.90;;;;;;5030145;28;20192;-58
2022/01/10 01:51:11;;;;;;;10.65;5.80;;;4.60;99.90;;;;;;5033737;28;20191;-59
2022/01/10 01:53:36;;;;;;;8.75;6.60;;;4.60;99.90;;;;;;5036960;28;20265;-59
2022/01/10 01:56:08;;;;;;;7.30;5.67;;;4.60;99.90;;;;;;5033477;28;20606;-59
2022/01/10 01:58:36;;;;;;;6.75;5.45;;;4.60;99.90;;;;;;5039783;28;20441;-59
2022/01/10 02:01:02;;;;;;;8.95;5.65;;;4.60;99.90;;;;;;5031655;28;20236;-59
2022/01/10 02:03:29;;;;;;;8.60;6.05;;;4.60;99.90;;;;;;5033122;28;20212;-58
2022/01/10 02:05:55;;;;;;;8.95;6.88;;;4.60;99.90;;;;;;5030541;28;20179;-59
2022/01/10 02:08:21;;;;;;;9.10;5.80;;;4.60;99.90;;;;;;5033276;28;20771;-52
2022/01/10 02:10:47;;;;;;;9.90;6.20;;;4.60;99.90;;;;;;5027445;28;20802;-60
2022/01/10 02:13:12;;;;;;;10.80;6.80;;;4.60;99.90;;;;;;5036801;28;20265;-59
2022/01/10 02:18:34;;;;;;;9.63;5.90;;;4.60;99.90;;;;;;5024737;28;20369;-59
2022/01/10 02:21:01;;;;;;;9.00;6.18;;;4.60;99.90;;;;;;5044679;28;20191;-59
2022/01/10 02:23:28;;;;;;;9.25;6.07;;;4.60;99.90;;;;;;5039039;28;20590;-59
2022/01/10 02:25:55;;;;;;;8.77;6.15;;;4.70;99.90;;;;;;5030002;28;20195;-59
2022/01/10 02:28:21;;;;;;;9.23;5.88;;;4.70;99.90;;;;;;5032688;28;20191;-59
2022/01/10 02:30:47;;;;;;;13.00;6.95;;;4.70;99.90;;;;;;5032828;28;20179;-60
2022/01/10 02:33:12;;;;;;;9.63;6.53;;;4.70;99.90;;;;;;5029887;28;20187;-59
2022/01/10 02:38:46;;;;;;;9.02;6.68;;;4.80;99.90;;;;;;5030339;28;20245;-59
2022/01/10 02:41:26;;;;;;;9.27;6.38;;;4.70;99.90;;;;;;5037276;28;20190;-59
2022/01/10 02:43:53;;;;;;;8.60;6.78;;;4.80;99.90;;;;;;5024702;28;20198;-60
2022/01/10 02:46:19;;;;;;;9.63;6.05;;;4.80;99.90;;;;;;5041920;28;21158;-60
2022/01/10 02:48:45;;;;;;;10.10;8.73;;;4.80;99.90;;;;;;5029189;28;20187;-60
2022/01/10 02:51:10;;;;;;;11.47;7.03;;;4.90;99.90;;;;;;5030789;28;20197;-60
2022/01/10 02:53:36;;;;;;;7.03;6.03;;;4.90;99.90;;;;;;5042240;28;20545;-60
2022/01/10 02:56:02;;;;;;;11.97;6.60;;;4.90;99.90;;;;;;5029245;28;20711;-60
2022/01/10 02:58:28;;;;;;;9.15;6.30;;;4.90;99.90;;;;;;5039271;28;20193;-60
2022/01/10 03:00:53;;;;;;;10.80;6.47;;;4.90;99.90;;;;;;5038163;28;20641;-60
2022/01/10 03:03:19;;;;;;;8.73;6.17;;;4.90;99.90;;;;;;5026803;28;20337;-60
2022/01/10 03:05:44;;;;;;;8.90;6.60;;;4.90;99.90;;;;;;5029581;28;20186;-60
2022/01/10 03:08:10;;;;;;;7.93;6.13;;;4.90;99.90;;;;;;5036490;28;20183;-61
2022/01/10 03:10:35;;;;;;;10.87;6.60;;;4.90;99.90;;;;;;5026975;28;20190;-60
2022/01/10 03:13:02;;;;;;;10.57;6.77;;;4.90;99.90;;;;;;5025501;28;20199;-55
2022/01/10 03:15:28;;;;;;;10.13;6.43;;;4.80;99.90;;;;;;5023742;28;20183;-60
2022/01/10 03:17:54;;;;;;;12.27;6.47;;;4.80;99.90;;;;;;5041415;28;20654;-60
2022/01/10 03:20:23;;;;;;;8.80;6.45;;;4.80;99.90;;;;;;5031959;28;20546;-60
2022/01/10 03:22:49;;;;;;;8.48;6.10;;;4.80;99.90;;;;;;5031155;28;20230;-61
2022/01/10 03:25:14;;;;;;;10.88;6.50;;;4.80;99.90;;;;;;5025238;28;20187;-60
2022/01/10 03:27:40;;;;;;;10.07;6.57;;;4.70;99.90;;;;;;5027832;28;20648;-60
2022/01/10 03:30:06;;;;;;;11.13;6.73;;;4.80;99.90;;;;;;5044489;28;20178;-60
2022/01/10 03:32:32;;;;;;;10.17;7.07;;;4.80;99.90;;;;;;5031838;28;20179;-61
2022/01/10 03:34:57;;;;;;;8.50;6.78;;;4.70;99.90;;;;;;5047386;28;20494;-60
2022/01/10 03:37:25;;;;;;;8.27;6.23;;;4.70;99.90;;;;;;5036972;28;20276;-60
2022/01/10 03:39:50;;;;;;;15.27;7.40;;;4.80;99.90;;;;;;5030778;28;20182;-60
2022/01/10 03:42:16;;;;;;;10.67;6.30;;;4.80;99.90;;;;;;5036278;28;20251;-60
2022/01/10 03:44:41;;;;;;;11.60;6.80;;;4.70;99.90;;;;;;5033051;28;20434;-60
2022/01/10 03:47:09;;;;;;;9.70;6.30;;;4.70;99.90;;;;;;5029407;28;20630;-60
2022/01/10 03:49:35;;;;;;;10.30;6.50;;;4.70;99.90;;;;;;5028190;28;20593;-61
2022/01/10 03:52:01;;;;;;;11.03;7.00;;;4.70;99.90;;;;;;5043700;28;20197;-60
2022/01/10 03:54:26;;;;;;;9.30;6.50;;;4.70;99.90;;;;;;5035471;28;20669;-60
2022/01/10 03:56:52;;;;;;;10.30;6.93;;;4.80;99.90;;;;;;5038364;28;20248;-60
2022/01/10 03:59:17;;;;;;;8.50;6.83;;;4.70;99.90;;;;;;5027677;28;20178;-60
2022/01/10 04:01:43;;;;;;;10.57;6.20;;;4.70;99.90;;;;;;5032425;28;20550;-62
2022/01/10 04:04:09;;;;;;;9.43;6.50;;;4.80;99.90;;;;;;5029507;28;20222;-59
2022/01/10 04:06:35;;;;;;;11.50;7.37;;;4.80;99.90;;;;;;5046539;28;21003;-60
2022/01/10 04:09:01;;;;;;;10.00;6.33;;;4.80;99.90;;;;;;5037562;28;20961;-60
2022/01/10 04:11:26;;;;;;;10.45;6.95;;;4.80;99.90;;;;;;5037052;28;20434;-59
2022/01/10 04:13:52;;;;;;;12.13;6.83;;;4.80;99.90;;;;;;5037110;28;20196;-60
2022/01/10 04:16:17;;;;;;;9.90;7.30;;;4.80;99.90;;;;;;5036639;28;20235;-60
2022/01/10 04:18:43;;;;;;;9.43;6.70;;;4.80;99.90;;;;;;5026817;28;20280;-60
2022/01/10 04:21:09;;;;;;;9.30;6.50;;;4.80;99.90;;;;;;5032506;28;20186;-60
2022/01/10 04:23:35;;;;;;;10.57;7.13;;;4.80;99.90;;;;;;5032566;28;20216;-62
2022/01/10 04:26:00;;;;;;;9.47;6.70;;;4.80;99.90;;;;;;5021063;28;20724;-61
2022/01/10 04:28:26;;;;;;;9.80;6.30;;;4.80;99.90;;;;;;5030098;28;20198;-60
2022/01/10 04:30:52;;;;;;;12.07;6.80;;;4.80;99.90;;;;;;5034646;28;20175;-60
2022/01/10 04:33:19;;;;;;;12.70;6.55;;;4.80;99.90;;;;;;5029726;28;20191;-61
2022/01/10 04:35:46;;;;;;;13.65;7.15;;;4.80;99.90;;;;;;5032447;28;20597;-60
2022/01/10 04:38:12;;;;;;;10.30;6.72;;;4.80;99.90;;;;;;5035037;28;20201;-60
2022/01/10 04:40:38;;;;;;;9.27;7.45;;;4.80;99.90;;;;;;5043954;28;20212;-60
2022/01/10 04:43:04;;;;;;;9.63;6.70;;;4.90;99.90;;;;;;5042452;28;20222;-60
2022/01/10 04:45:29;;;;;;;13.57;6.60;;;4.90;99.90;;;;;;5033562;28;20178;-60
2022/01/10 04:47:55;;;;;;;10.03;6.87;;;4.90;99.90;;;;;;5034447;28;20189;-53
2022/01/10 04:52:47;;;;;;;11.70;6.77;;;4.90;99.90;;;;;;5043348;28;20280;-61
2022/01/10 04:55:13;;;;;;;9.32;6.70;;;4.90;99.90;;;;;;5040178;28;20240;-61
2022/01/10 04:57:39;;;;;;;12.38;6.78;;;4.90;99.90;;;;;;5043186;28;20269;-60
2022/01/10 05:00:11;;;;;;;9.50;7.70;;;4.90;99.90;;;;;;5048805;28;20276;-59
2022/01/10 05:02:37;;;;;;;9.75;7.32;;;4.90;99.90;;;;;;5053611;28;20246;-59
2022/01/10 05:05:03;;;;;;;11.02;8.07;;;4.90;99.90;;;;;;5029887;28;20190;-60
2022/01/10 05:07:29;;;;;;;10.60;6.93;;;4.90;99.90;;;;;;5024490;28;21131;-60
2022/01/10 05:09:54;;;;;;;9.67;7.40;;;4.90;99.90;;;;;;5030361;28;20187;-60
2022/01/10 05:12:23;;;;;;;8.77;6.73;;;5.00;99.90;;;;;;5025421;28;20281;-60
2022/01/10 05:14:48;;;;;;;16.17;7.40;;;5.00;99.90;;;;;;5037756;28;20777;-60
2022/01/10 05:17:15;;;;;;;11.97;7.37;;;5.00;99.90;;;;;;5031265;28;20214;-60
2022/01/10 05:19:40;;;;;;;9.48;7.60;;;5.00;99.90;;;;;;5027820;28;20200;-59
2022/01/10 05:22:06;;;;;;;11.00;6.70;;;5.00;99.90;;;;;;5039294;28;20190;-60
2022/01/10 05:24:32;;;;;;;13.33;7.40;;;5.00;99.90;;;;;;5028154;28;20222;-60
2022/01/10 05:26:57;;;;;;;11.70;7.33;;;5.00;99.90;;;;;;5038276;28;20183;-61
2022/01/10 05:29:23;;;;;;;9.20;6.93;;;5.00;99.90;;;;;;5034843;28;20188;-60
2022/01/10 05:31:49;;;;;;;10.83;7.17;;;4.90;99.90;;;;;;5027475;28;20959;-60
2022/01/10 05:34:14;;;;;;;9.63;6.23;;;4.90;99.90;;;;;;5025464;28;20175;-60
2022/01/10 05:36:40;;;;;;;15.47;7.70;;;4.90;99.90;;;;;;5031415;28;20516;-60
2022/01/10 05:39:07;;;;;;;12.00;7.87;;;5.00;99.90;;;;;;5027822;28;21947;-61
2022/01/10 05:41:33;;;;;;;11.48;7.70;;;4.90;99.90;;;;;;5038570;28;20187;-60
2022/01/10 05:43:59;;;;;;;14.60;8.98;;;4.90;99.90;;;;;;5027183;28;20225;-61
2022/01/10 05:46:25;;;;;;;9.97;7.40;;;5.00;99.90;;;;;;5031290;28;20191;-54
2022/01/10 05:48:53;;;;;;;14.43;8.50;;;5.00;99.90;;;;;;5031679;28;20198;-61
2022/01/10 05:51:20;;;;;;;12.07;7.28;;;5.10;99.90;;;;;;5044659;28;20508;-60
2022/01/10 05:53:46;;;;;;;9.95;7.20;;;5.10;99.90;;;;;;5050636;28;20178;-61
2022/01/10 05:56:11;;;;;;;12.70;8.40;;;5.00;99.90;;;;;;5051270;28;20187;-61
2022/01/10 05:58:37;;;;;;;10.03;7.87;;;5.00;99.90;;;;;;5051684;28;20209;-61
2022/01/10 06:01:04;;;;;;;15.23;9.07;;;4.90;99.90;;;;;;5029374;28;20273;-60
2022/01/10 06:03:30;;;;;;;12.38;7.97;;;4.90;99.90;;;;;;5048811;28;20216;-61
2022/01/10 06:05:55;;;;;;;13.40;8.63;;;4.90;99.90;;;;;;5034616;28;20186;-60
2022/01/10 06:08:21;;;;;;;16.10;8.43;;;4.80;99.90;;;;;;5028505;28;20178;-60
2022/01/10 06:10:47;;;;;;;14.10;8.80;;;4.80;99.90;;;;;;5027982;28;20175;-61
2022/01/10 06:13:13;;;;;;;13.97;8.80;;;4.80;99.90;;;;;;5030681;28;20652;-52
2022/01/10 06:15:41;;;;;;;11.60;8.23;;;4.90;99.90;;;;;;5031143;28;20179;-54
2022/01/10 06:18:06;;;;;;;15.52;8.82;;;4.80;99.90;;;;;;5030714;28;20434;-52
2022/01/10 06:20:32;;;;;;;14.67;8.20;;;4.80;99.90;;;;;;5030089;28;20562;-53
2022/01/10 06:22:58;;;;;;;12.73;9.13;;;4.90;99.90;;;;;;5029649;28;20467;-53
2022/01/10 06:25:26;;;;;;;12.90;8.13;;;4.80;99.90;;;;;;5028689;28;20517;-52
2022/01/10 06:27:53;;;;;;;9.57;7.25;;;4.80;99.90;;;;;;5017657;28;20198;-57
2022/01/10 06:30:19;;;;;;;11.82;8.10;;;4.80;99.90;;;;;;5025102;28;20181;-54
2022/01/10 06:32:45;;;;;;;12.48;7.90;;;4.80;99.90;;;;;;5032489;28;20633;-51
2022/01/10 06:35:11;;;;;;;12.60;8.87;;;4.80;99.90;;;;;;5032927;28;20182;-52
2022/01/10 06:37:37;;;;;;;13.65;8.43;;;4.80;99.90;;;;;;5042600;28;20471;-52
2022/01/10 06:40:05;;;;;;;15.60;8.43;;;4.70;99.90;;;;;;5034041;28;20655;-53
2022/01/10 06:42:31;;;;;;;12.80;8.32;;;4.70;99.90;;;;;;5050330;28;20185;-55
2022/01/10 06:44:56;;;;;;;12.37;8.50;;;4.80;99.90;;;;;;5036774;28;20550;-52
2022/01/10 06:47:22;;;;;;;13.83;8.47;;;4.70;99.90;;;;;;5039700;28;20436;-50
2022/01/10 06:49:47;;;;;;;24.07;9.13;;;4.70;99.90;;;;;;5045840;28;20238;-56
2022/01/10 06:52:13;;;;;;;20.20;8.90;;;4.70;99.90;;;;;;5029641;28;20186;-53
2022/01/10 06:54:39;;;;;;;17.33;9.23;;;4.70;99.90;;;;;;5028429;28;20182;-54
2022/01/10 06:57:04;;;;;;;14.93;9.20;;;4.80;99.90;;;;;;5029858;28;20183;-53
2022/01/10 06:59:30;;;;;;;14.70;8.80;;;4.80;99.90;;;;;;5042558;28;20256;-51
2022/01/10 07:01:57;;;;;;;14.20;9.50;;;4.80;99.90;;;;;;5047697;28;20588;-52
2022/01/10 07:04:23;;;;;;;16.02;9.68;;;4.80;99.90;;;;;;5049330;28;20221;-53
2022/01/10 07:06:48;;;;;;;20.77;9.55;;;4.80;99.90;;;;;;5043459;28;20187;-57
2022/01/10 07:09:15;;;;;;;15.47;9.20;;;4.80;99.90;;;;;;5028787;28;20202;-51
2022/01/10 07:11:41;;;;;;;15.40;9.13;;;4.80;99.90;;;;;;5036029;28;20186;-53
2022/01/10 07:14:07;;;;;;;16.60;8.87;;;4.90;99.90;;;;;;5038443;28;20229;-55
2022/01/10 07:16:32;;;;;;;14.13;8.70;;;4.80;99.90;;;;;;5033659;28;20757;-50
2022/01/10 07:18:58;;;;;;;17.50;9.10;;;4.80;99.90;;;;;;5050414;28;20189;-49
2022/01/10 07:21:24;;;;;;;15.30;9.60;;;4.70;99.90;;;;;;5046665;28;20607;-54
2022/01/10 07:23:50;;;;;;;15.40;9.50;;;4.80;99.90;;;;;;5039235;28;20660;-55
2022/01/10 07:26:16;;;;;;;14.87;10.30;;;4.80;99.90;;;;;;5048111;28;20216;-51
2022/01/10 07:28:42;;;;;;;18.60;10.80;;;4.70;99.90;;;;;;5030783;28;20788;-53
2022/01/10 07:31:07;;;;;;;17.67;11.50;;;4.70;99.90;;;;;;5034696;28;20183;-53
2022/01/10 07:33:34;;;;;;;14.57;10.03;;;4.70;99.90;;;;;;5031486;28;20269;-55
2022/01/10 07:36:00;;;;;;;16.92;10.43;;;4.70;99.90;;;;;;5030747;28;20179;-53
2022/01/10 07:38:26;;;;;;;20.50;9.65;;;4.70;99.90;;;;;;5039065;28;20248;-53
2022/01/10 07:40:51;;;;;;;13.67;9.70;;;4.70;99.90;;;;;;5028240;28;20203;-54
2022/01/10 07:43:17;;;;;;;16.23;10.20;;;4.60;99.90;;;;;;5037721;28;20209;-52
2022/01/10 07:45:43;;;;;;;17.97;10.53;;;4.70;99.90;;;;;;5048429;28;20189;-55
2022/01/10 07:48:09;;;;;;;18.13;11.60;;;4.70;99.90;;;;;;5032303;28;20625;-55
2022/01/10 07:50:34;;;;;;;17.42;11.18;;;4.70;99.90;;;;;;5034860;28;20257;-53
2022/01/10 07:53:00;;;;;;;16.47;10.30;;;4.60;99.90;;;;;;5032161;28;20190;-54
2022/01/10 07:55:26;;;;;;;17.80;10.60;;;4.60;99.90;;;;;;5045923;28;20186;-53
2022/01/10 07:57:51;;;;;;;19.43;11.87;;;4.70;99.90;;;;;;5025942;28;20187;-55
2022/01/10 08:00:17;;;;;;;16.47;11.07;;;4.60;99.90;;;;;;5046273;28;20198;-54
2022/01/10 08:02:42;;;;;;;15.73;10.53;;;4.60;99.90;;;;;;5030362;28;20559;-54
2022/01/10 08:05:09;;;;;;;17.43;11.23;;;4.60;99.90;;;;;;5046193;28;20248;-51
2022/01/10 08:07:35;;;;;;;19.50;10.75;;;4.60;99.90;;;;;;5026776;28;20530;-53
2022/01/10 08:10:04;;;;;;;18.77;12.10;;;4.70;99.90;;;;;;5024134;28;20195;-56
2022/01/10 08:12:30;;;;;;;18.30;10.55;;;4.70;99.90;;;;;;5037731;28;20268;-53
2022/01/10 08:14:56;;;;;;;16.77;11.57;;;4.70;99.90;;;;;;5045302;28;20572;-54
2022/01/10 08:17:21;;;;;;;16.07;10.73;;;4.70;99.90;;;;;;5041247;28;20422;-55
2022/01/10 08:19:47;;;;;;;21.50;11.60;;;4.70;99.90;;;;;;5026202;28;20620;-56
2022/01/10 08:22:12;;;;;;;22.67;12.40;;;4.70;99.90;;;;;;5039448;28;20552;-53
2022/01/10 08:24:38;;;;;;;19.93;12.30;;;4.70;99.90;;;;;;5020683;28;20301;-52
2022/01/10 08:27:04;;;;;;;19.13;12.10;;;4.70;99.90;;;;;;5029597;28;20249;-53
2022/01/10 08:29:30;;;;;;;23.02;11.60;;;4.70;99.90;;;;;;5033428;28;20269;-53
2022/01/10 08:31:56;;;;;;;19.63;11.80;;;4.70;99.90;;;;;;5028759;28;20266;-54
2022/01/10 08:34:24;;;;;;;20.58;12.55;;;4.80;99.90;;;;;;5025136;28;20182;-54
2022/01/10 08:36:50;;;;;;;22.08;12.75;;;4.80;99.90;;;;;;5038068;28;20579;-55
2022/01/10 08:39:17;;;;;;;21.75;12.88;;;4.80;99.90;;;;;;5033239;28;20183;-50
2022/01/10 08:41:42;;;;;;;20.05;11.52;;;4.90;99.90;;;;;;5022285;28;20251;-54
2022/01/10 08:44:08;;;;;;;23.73;12.33;;;4.90;99.90;;;;;;5025018;28;20219;-50
2022/01/10 08:46:35;;;;;;;22.73;12.17;;;4.80;99.90;;;;;;5027759;28;20187;-52
2022/01/10 08:49:01;;;;;;;22.15;13.25;;;4.80;99.90;;;;;;5026060;28;20438;-54
2022/01/10 08:51:29;;;;;;;23.03;13.30;;;4.90;99.90;;;;;;5021283;28;20188;-53
2022/01/10 08:53:54;;;;;;;26.77;12.35;;;4.90;99.90;;;;;;5021616;28;20282;-51
2022/01/10 08:56:20;;;;;;;19.97;12.13;;;4.90;99.90;;;;;;5028532;28;20260;-54
2022/01/10 08:58:45;;;;;;;23.13;13.13;;;4.90;99.90;;;;;;5030753;28;20537;-53
2022/01/10 09:01:11;;;;;;;21.87;13.00;;;5.00;99.90;;;;;;5035497;28;20190;-58
2022/01/10 09:03:37;;;;;;;26.47;14.27;;;4.90;99.90;;;;;;5043635;28;20304;-52
2022/01/10 09:06:03;;;;;;;28.83;16.65;;;4.90;99.90;;;;;;5042596;28;20197;-56
2022/01/10 09:08:33;;;;;;;27.20;14.40;;;4.90;99.90;;;;;;5030575;28;20174;-54
2022/01/10 09:10:59;;;;;;;27.77;13.70;;;5.00;99.90;;;;;;5038479;28;20205;-52
2022/01/10 09:13:25;;;;;;;30.33;17.30;;;5.00;99.90;;;;;;5038293;28;20270;-53
2022/01/10 09:15:50;;;;;;;24.17;13.67;;;5.00;99.90;;;;;;5030999;28;20277;-54
2022/01/10 09:18:16;;;;;;;27.17;13.90;;;5.00;99.90;;;;;;5038946;28;20434;-52
2022/01/10 09:20:43;;;;;;;30.07;13.90;;;5.00;99.90;;;;;;5046142;28;20201;-54
2022/01/10 09:23:09;;;;;;;23.83;13.32;;;5.00;99.90;;;;;;5040003;28;20567;-53
2022/01/10 09:25:35;;;;;;;26.43;14.40;;;5.00;99.90;;;;;;5038570;28;20297;-52
2022/01/10 09:28:00;;;;;;;28.83;17.30;;;5.10;99.90;;;;;;5037708;28;20189;-58
2022/01/10 09:30:26;;;;;;;24.93;13.87;;;5.10;99.90;;;;;;5032185;28;21159;-51
2022/01/10 09:32:53;;;;;;;37.50;21.20;;;5.10;99.90;;;;;;5029548;28;20205;-53
2022/01/10 09:35:20;;;;;;;32.42;24.13;;;5.10;99.90;;;;;;5031898;28;20270;-54
2022/01/10 09:37:45;;;;;;;25.05;14.02;;;5.10;99.90;;;;;;5035466;28;20190;-54
2022/01/10 09:40:11;;;;;;;33.87;22.50;;;5.10;99.90;;;;;;5031118;28;20199;-55
2022/01/10 09:42:38;;;;;;;37.20;15.57;;;5.20;99.90;;;;;;5049501;28;20181;-52
2022/01/10 09:45:05;;;;;;;26.27;13.25;;;5.10;99.90;;;;;;5045287;28;20470;-53
2022/01/10 09:47:31;;;;;;;29.80;14.05;;;5.20;99.90;;;;;;5039032;28;20690;-55
2022/01/10 09:49:57;;;;;;;30.27;17.70;;;5.20;99.90;;;;;;5029076;28;20227;-53
2022/01/10 09:52:22;;;;;;;46.07;27.60;;;5.20;99.90;;;;;;5046837;28;20187;-56
2022/01/10 09:54:50;;;;;;;29.03;16.70;;;5.20;99.90;;;;;;5045200;28;20554;-56
2022/01/10 09:57:16;;;;;;;27.98;14.15;;;5.20;99.90;;;;;;5039706;28;20176;-51
2022/01/10 09:59:42;;;;;;;26.20;13.57;;;5.10;99.90;;;;;;5050900;28;20178;-52
2022/01/10 10:02:08;;;;;;;54.35;30.80;;;5.20;99.90;;;;;;5034623;28;20179;-54
2022/01/10 10:04:37;;;;;;;118.10;67.57;;;5.20;99.90;;;;;;5044876;28;20224;-54
2022/01/10 10:07:06;;;;;;;600.53;333.83;;;5.30;99.90;;;;;;5037269;28;20206;-55
2022/01/10 10:09:32;;;;;;;110.63;65.40;;;5.30;99.90;;;;;;5050354;28;20576;-53
2022/01/10 10:11:58;;;;;;;34.40;20.10;;;5.40;99.90;;;;;;5038104;28;20189;-54
2022/01/10 10:14:23;;;;;;;81.60;61.67;;;5.30;99.90;;;;;;5043608;28;20179;-54
2022/01/10 10:16:52;;;;;;;42.33;30.00;;;5.30;99.90;;;;;;5025703;28;20571;-53
2022/01/10 10:19:21;;;;;;;38.53;26.20;;;5.30;99.90;;;;;;5026334;28;20661;-54
2022/01/10 10:21:48;;;;;;;28.40;16.38;;;5.30;99.90;;;;;;5031085;28;20201;-56
2022/01/10 10:24:14;;;;;;;27.88;15.73;;;5.30;99.90;;;;;;5029580;28;20209;-54
2022/01/10 10:26:40;;;;;;;34.33;23.60;;;5.30;99.90;;;;;;5027880;28;20538;-54
2022/01/10 10:29:05;;;;;;;33.40;19.77;;;5.30;99.90;;;;;;5029438;28;20258;-53
2022/01/10 10:31:34;;;;;;;30.13;20.50;;;5.30;99.90;;;;;;5029286;28;20936;-53
2022/01/10 10:34:03;;;;;;;26.73;15.13;;;5.40;99.90;;;;;;5027638;28;20217;-51
2022/01/10 10:36:31;;;;;;;28.45;16.13;;;5.40;99.90;;;;;;5048282;28;20856;-52
2022/01/10 10:38:57;;;;;;;25.02;15.15;;;5.30;99.90;;;;;;5031163;28;20191;-57
2022/01/10 10:41:24;;;;;;;28.63;14.50;;;5.40;99.90;;;;;;5033987;28;20190;-54
2022/01/10 10:43:51;;;;;;;23.25;13.18;;;5.30;99.90;;;;;;5030570;28;20610;-52
2022/01/10 10:46:18;;;;;;;30.25;14.35;;;5.30;99.90;;;;;;5030511;28;20808;-55
2022/01/10 10:48:49;;;;;;;24.20;13.95;;;5.40;99.90;;;;;;5035174;28;20185;-54
2022/01/10 10:51:15;;;;;;;24.40;13.45;;;5.40;99.90;;;;;;5023377;28;20993;-54
2022/01/10 10:53:41;;;;;;;23.90;13.40;;;5.50;99.90;;;;;;5029820;28;20187;-54
2022/01/10 10:56:07;;;;;;;29.77;13.25;;;5.50;99.90;;;;;;5028338;28;20437;-53
2022/01/10 10:58:33;;;;;;;26.88;13.15;;;5.60;99.90;;;;;;5031380;28;20667;-53
2022/01/10 11:01:00;;;;;;;26.43;14.70;;;5.50;99.90;;;;;;5035717;28;20182;-54
2022/01/10 11:03:26;;;;;;;29.13;13.25;;;5.60;99.90;;;;;;5034678;28;20470;-53
2022/01/10 11:05:59;;;;;;;25.80;13.70;;;5.60;99.90;;;;;;5028642;28;20641;-53
2022/01/10 11:08:31;;;;;;;27.15;13.88;;;5.50;99.90;;;;;;5035578;28;20817;-52
2022/01/10 11:11:01;;;;;;;24.00;13.10;;;5.60;99.90;;;;;;5029217;28;20214;-52
2022/01/10 11:13:31;;;;;;;21.80;12.90;;;5.50;99.90;;;;;;5038975;28;20708;-54
2022/01/10 11:15:58;;;;;;;22.58;13.68;;;5.60;99.90;;;;;;5033549;28;20637;-53
2022/01/10 11:18:23;;;;;;;24.95;12.85;;;5.60;99.90;;;;;;5031552;28;20187;-55
2022/01/10 11:20:52;;;;;;;20.07;11.00;;;5.70;99.90;;;;;;5047793;28;20691;-54
2022/01/10 11:23:18;;;;;;;21.15;11.30;;;5.60;99.90;;;;;;5039323;28;20722;-55
2022/01/10 11:25:44;;;;;;;28.35;15.13;;;5.60;99.90;;;;;;5035921;28;20199;-52
2022/01/10 11:28:11;;;;;;;36.53;17.63;;;5.60;99.90;;;;;;5038532;28;20216;-55
2022/01/10 11:30:45;;;;;;;40.72;27.85;;;5.70;99.90;;;;;;5033966;28;20478;-54
2022/01/10 11:33:10;;;;;;;26.92;18.48;;;5.70;99.90;;;;;;5032516;28;20194;-55
2022/01/10 11:35:42;;;;;;;29.20;14.73;;;5.70;99.90;;;;;;5032316;28;20236;-55
2022/01/10 11:38:29;;;;;;;24.10;12.85;;;5.70;99.90;;;;;;5038991;28;20657;-54
2022/01/10 11:41:04;;;;;;;30.77;18.30;;;5.80;99.90;;;;;;5046078;28;20200;-56
2022/01/10 11:43:37;;;;;;;20.60;13.68;;;5.90;99.90;;;;;;5027868;28;20727;-55
2022/01/10 11:46:51;;;;;;;35.45;24.75;;;5.90;99.90;;;;;;5044803;28;20182;-54
2022/01/10 11:49:19;;;;;;;34.33;24.13;;;5.90;99.90;;;;;;5022610;28;20289;-55
2022/01/10 11:51:49;;;;;;;17.65;11.43;;;5.80;99.90;;;;;;5045800;28;20224;-55
2022/01/10 11:54:28;;;;;;;18.15;10.65;;;5.90;99.90;;;;;;5030810;28;20186;-54
2022/01/10 11:57:07;;;;;;;21.40;12.55;;;6.00;99.90;;;;;;5026580;28;20187;-56
2022/01/10 11:59:42;;;;;;;22.27;15.18;;;6.00;99.90;;;;;;5028481;28;20237;-55
2022/01/10 12:02:16;;;;;;;17.70;12.45;;;6.00;99.90;;;;;;5025970;28;20621;-54
2022/01/10 12:04:50;;;;;;;20.00;12.05;;;6.10;99.90;;;;;;5030302;28;20596;-50
2022/01/10 12:07:19;;;;;;;16.80;11.45;;;6.10;99.90;;;;;;5029100;28;20228;-55
2022/01/10 12:09:45;;;;;;;16.97;11.47;;;6.10;99.90;;;;;;5046084;28;20187;-53
2022/01/10 12:12:14;;;;;;;17.77;11.93;;;6.00;99.90;;;;;;5029860;28;20444;-53
2022/01/10 12:14:41;;;;;;;40.60;35.67;;;6.00;99.90;;;;;;5029049;28;20559;-56
2022/01/10 12:17:08;;;;;;;18.77;16.02;;;6.00;99.90;;;;;;5025624;28;20183;-55
2022/01/10 12:19:34;;;;;;;34.17;27.92;;;6.00;99.90;;;;;;5030880;28;20185;-53
2022/01/10 12:22:00;;;;;;;34.63;29.33;;;6.00;99.90;;;;;;5030143;28;20186;-55
2022/01/10 12:24:26;;;;;;;55.95;49.42;;;6.10;99.90;;;;;;5029261;28;20199;-59
2022/01/10 12:26:52;;;;;;;32.73;26.47;;;6.10;99.90;;;;;;5029846;28;20893;-53
2022/01/10 12:29:18;;;;;;;21.13;13.83;;;6.20;99.90;;;;;;5026195;28;20830;-57
2022/01/10 12:31:46;;;;;;;20.20;13.87;;;6.30;99.90;;;;;;5034373;28;20417;-56
2022/01/10 12:34:13;;;;;;;16.83;11.50;;;6.30;99.90;;;;;;5034947;28;20711;-51
2022/01/10 12:36:41;;;;;;;16.45;9.02;;;6.30;99.90;;;;;;5036230;28;20182;-53
2022/01/10 12:39:11;;;;;;;17.30;13.50;;;6.40;99.90;;;;;;5046547;28;21127;-56
2022/01/10 12:41:37;;;;;;;14.70;10.32;;;6.30;99.90;;;;;;5039464;28;20719;-52
2022/01/10 12:44:03;;;;;;;16.10;8.40;;;6.20;99.90;;;;;;5045896;28;20210;-54
2022/01/10 12:46:32;;;;;;;13.73;7.95;;;6.20;99.90;;;;;;5033948;28;20424;-55
2022/01/10 12:49:04;;;;;;;13.05;7.85;;;6.30;99.90;;;;;;5033983;28;20201;-53
2022/01/10 12:51:37;;;;;;;14.77;7.47;;;6.30;99.90;;;;;;5038432;28;20220;-54
2022/01/10 12:54:05;;;;;;;14.95;7.53;;;6.30;99.90;;;;;;5046226;28;20421;-55
2022/01/10 12:56:32;;;;;;;13.25;7.53;;;6.30;99.90;;;;;;5051451;28;20237;-58
2022/01/10 12:58:57;;;;;;;14.98;8.98;;;6.30;99.90;;;;;;5040097;28;20182;-53
2022/01/10 13:01:23;;;;;;;11.37;8.10;;;6.30;99.90;;;;;;5048262;28;20201;-54
2022/01/10 13:04:01;;;;;;;14.50;8.83;;;6.40;99.90;;;;;;5039570;28;20214;-53
2022/01/10 13:06:34;;;;;;;14.93;8.10;;;6.40;99.90;;;;;;5037939;28;20197;-51
2022/01/10 13:09:00;;;;;;;12.70;7.97;;;6.40;99.90;;;;;;5046728;28;20437;-53